Kherson, Ukraine
Current Conditions -  °F | °C
As of 7:00 PM on Thursday 27 Nov 2014 (Local Time) from UKON Reporting Station
Light Snow Light Snow  
Wind Chill: 17°   Ceiling: 700
Heat Index: 25°   Visibility: 2.1mi
Dew Point: 23°   Wind: 7mph
Humidity: 93%   Direction: 30°NNE
Pressure: 30.27"   Gusts: NA
Location:  46.63°N, 32.6°E
Report Text: UKON 271600Z 03003MPS 3400 -SG BR OVC007 M04/M05 Q1025 NOSIG
Loading
Personal Weather Stations






























Interactive Weather Map New forecast layout! Learn more

10-Day Weather Forecast

Advertisements
Track Severe Weather on mobile